Time;durP1;ratioP1;P1;durP2;ratioP2;P2;SDS_P1;SDS_P2;PMS_P1;PMS_P2;Temp;Humidity;BMP_temperature;BMP_pressure;BME280_temperature;BME280_humidity;BME280_pressure;Samples;Min_cycle;Max_cycle;Signal;HPM_P1;HPM_P2
2022/10/25 00:01:14;;;;;;;9.02;3.90;;;15.60;99.90;;;;;;5080701;28;20025;-74
2022/10/25 00:03:40;;;;;;;8.07;4.25;;;15.60;99.90;;;;;;5071856;28;20480;-76
2022/10/25 00:06:08;;;;;;;7.63;3.55;;;15.60;99.90;;;;;;5080557;28;20036;-76
2022/10/25 00:08:34;;;;;;;10.55;4.72;;;15.60;99.90;;;;;;5082807;28;20523;-76
2022/10/25 00:11:00;;;;;;;6.30;4.03;;;15.60;99.90;;;;;;5071380;28;20042;-76
2022/10/25 00:13:25;;;;;;;7.43;3.75;;;15.50;99.90;;;;;;5074954;28;20026;-75
2022/10/25 00:15:51;;;;;;;6.10;3.97;;;15.50;99.90;;;;;;5074657;28;20619;-75
2022/10/25 00:18:17;;;;;;;6.65;3.92;;;15.50;99.90;;;;;;5071652;28;20099;-75
2022/10/25 00:20:42;;;;;;;6.57;3.45;;;15.50;99.90;;;;;;5077091;28;20032;-75
2022/10/25 00:23:08;;;;;;;6.60;3.72;;;15.50;99.90;;;;;;5090191;28;20020;-75
2022/10/25 00:25:33;;;;;;;6.22;3.55;;;15.50;99.90;;;;;;5076215;28;20039;-75
2022/10/25 00:27:59;;;;;;;6.05;3.13;;;15.50;99.90;;;;;;5078086;28;20102;-74
2022/10/25 00:30:25;;;;;;;6.05;4.05;;;15.50;99.90;;;;;;5079425;28;20348;-75
2022/10/25 00:32:51;;;;;;;6.38;3.25;;;15.50;99.90;;;;;;5088908;28;20046;-75
2022/10/25 00:35:18;;;;;;;6.97;3.72;;;15.50;99.90;;;;;;5072088;28;20044;-75
2022/10/25 00:37:43;;;;;;;7.90;3.83;;;15.50;99.90;;;;;;5080930;28;20021;-75
2022/10/25 00:40:10;;;;;;;9.05;4.05;;;15.50;99.90;;;;;;5069336;28;20032;-75
2022/10/25 00:42:35;;;;;;;6.22;3.40;;;15.50;99.90;;;;;;5085918;28;20052;-75
2022/10/25 00:45:08;;;;;;;8.85;3.60;;;15.50;99.90;;;;;;5071031;28;20102;-75
2022/10/25 00:47:40;;;;;;;5.65;3.70;;;15.50;99.90;;;;;;5087659;28;20028;-75
2022/10/25 00:50:20;;;;;;;8.40;4.70;;;15.40;99.90;;;;;;5079201;28;20032;-75
2022/10/25 00:52:49;;;;;;;9.43;3.75;;;15.40;99.90;;;;;;5082482;28;20020;-75
2022/10/25 00:55:17;;;;;;;10.95;3.47;;;15.40;99.90;;;;;;5086461;28;20032;-75
2022/10/25 00:57:52;;;;;;;9.77;4.03;;;15.40;99.90;;;;;;5071006;28;20024;-76
2022/10/25 01:00:18;;;;;;;6.60;3.25;;;15.30;99.90;;;;;;5070353;28;20109;-76
2022/10/25 01:02:44;;;;;;;6.43;4.15;;;15.30;99.90;;;;;;5079921;28;20093;-76
2022/10/25 01:05:10;;;;;;;6.55;3.85;;;15.30;99.90;;;;;;5071068;28;20033;-76
2022/10/25 01:07:35;;;;;;;10.60;3.70;;;15.30;99.90;;;;;;5072291;28;20021;-76
2022/10/25 01:10:01;;;;;;;6.88;3.47;;;15.30;99.90;;;;;;5074654;28;20401;-75
2022/10/25 01:12:27;;;;;;;7.45;3.95;;;15.30;99.90;;;;;;5074415;28;20029;-76
2022/10/25 01:14:53;;;;;;;10.75;4.70;;;15.30;99.90;;;;;;5073309;28;20020;-75
2022/10/25 01:17:45;;;;;;;7.65;4.10;;;15.30;99.90;;;;;;5059417;28;20429;-76
2022/10/25 01:20:40;;;;;;;7.13;3.70;;;15.30;99.90;;;;;;5071213;28;20037;-76
2022/10/25 01:23:26;;;;;;;9.77;4.88;;;15.40;99.90;;;;;;5066081;28;20076;-76
2022/10/25 01:26:09;;;;;;;5.47;3.20;;;15.30;99.90;;;;;;5074065;28;20496;-76
2022/10/25 01:28:53;;;;;;;8.82;3.40;;;15.40;99.90;;;;;;5073294;28;20029;-76
2022/10/25 01:31:47;;;;;;;9.18;3.80;;;15.40;99.90;;;;;;5074073;28;20060;-76
2022/10/25 01:34:50;;;;;;;6.53;3.30;;;15.40;99.90;;;;;;5073604;28;20517;-76
2022/10/25 01:37:31;;;;;;;7.00;3.55;;;15.40;99.90;;;;;;5068870;28;20044;-76
2022/10/25 01:40:11;;;;;;;9.15;4.25;;;15.40;99.90;;;;;;5074533;28;20357;-76
2022/10/25 01:43:17;;;;;;;6.43;4.00;;;15.50;99.90;;;;;;5073472;28;20494;-76
2022/10/25 01:45:54;;;;;;;7.60;3.72;;;15.50;99.90;;;;;;5074046;28;20377;-76
2022/10/25 01:48:28;;;;;;;8.77;4.55;;;15.50;99.90;;;;;;5071848;28;20441;-76
2022/10/25 01:51:04;;;;;;;10.20;3.95;;;15.60;99.90;;;;;;5075022;28;20532;-77
2022/10/25 01:53:30;;;;;;;6.75;3.47;;;15.60;99.90;;;;;;5068897;28;20029;-76
2022/10/25 01:55:59;;;;;;;7.80;3.80;;;15.60;99.90;;;;;;5072627;28;20036;-76
2022/10/25 01:58:59;;;;;;;6.97;3.75;;;15.60;99.90;;;;;;5085186;28;20075;-76
2022/10/25 02:01:30;;;;;;;5.45;3.80;;;15.70;99.90;;;;;;5073148;28;20415;-76
2022/10/25 02:04:05;;;;;;;8.23;4.50;;;15.60;99.90;;;;;;5071120;28;20029;-76
2022/10/25 02:07:03;;;;;;;6.07;3.80;;;15.70;99.90;;;;;;5073486;28;20458;-76
2022/10/25 02:09:58;;;;;;;7.75;3.20;;;15.70;99.90;;;;;;5053698;28;20025;-76
2022/10/25 02:12:32;;;;;;;7.60;4.15;;;15.70;99.90;;;;;;5065957;28;20609;-75
2022/10/25 02:15:17;;;;;;;6.65;3.85;;;15.70;99.90;;;;;;5073535;28;20032;-75
2022/10/25 02:17:59;;;;;;;7.57;3.78;;;15.70;99.90;;;;;;5084344;28;20491;-75
2022/10/25 02:20:27;;;;;;;11.00;4.18;;;15.70;99.90;;;;;;5079155;28;20045;-75
2022/10/25 02:22:56;;;;;;;7.68;3.92;;;15.80;99.90;;;;;;5071664;28;20518;-75
2022/10/25 02:25:22;;;;;;;6.95;3.80;;;15.80;99.90;;;;;;5072269;28;20045;-75
2022/10/25 02:27:52;;;;;;;5.97;3.38;;;15.80;99.90;;;;;;5080720;28;20020;-75
2022/10/25 02:30:18;;;;;;;5.30;3.40;;;15.80;99.90;;;;;;5075283;28;20490;-75
2022/10/25 02:32:44;;;;;;;7.18;3.58;;;15.80;99.90;;;;;;5082014;28;20016;-75
2022/10/25 02:35:15;;;;;;;7.28;3.45;;;15.80;99.90;;;;;;5074955;28;20067;-75
2022/10/25 02:37:41;;;;;;;7.25;3.60;;;15.80;99.90;;;;;;5079287;28;20353;-75
2022/10/25 02:40:08;;;;;;;7.57;4.07;;;15.80;99.90;;;;;;5072888;28;20090;-75
2022/10/25 02:42:34;;;;;;;8.98;4.18;;;15.90;99.90;;;;;;5080594;28;20237;-75
2022/10/25 02:44:59;;;;;;;4.78;3.22;;;15.90;99.90;;;;;;5071772;28;20492;-75
2022/10/25 02:47:25;;;;;;;8.70;3.22;;;15.90;99.90;;;;;;5075349;28;20479;-74
2022/10/25 02:49:50;;;;;;;7.30;3.15;;;15.90;99.90;;;;;;5072752;28;20028;-74
2022/10/25 02:52:16;;;;;;;5.00;3.05;;;15.90;99.90;;;;;;5073196;28;20088;-75
2022/10/25 02:54:42;;;;;;;5.63;3.42;;;15.90;99.90;;;;;;5072447;28;20081;-76
2022/10/25 02:57:07;;;;;;;4.72;2.72;;;15.90;99.90;;;;;;5079742;28;20013;-75
2022/10/25 02:59:33;;;;;;;7.25;3.22;;;15.90;99.90;;;;;;5072438;28;20052;-76
2022/10/25 03:01:58;;;;;;;7.68;3.28;;;15.90;99.90;;;;;;5077564;28;20024;-76
2022/10/25 03:04:24;;;;;;;7.97;3.53;;;15.90;99.90;;;;;;5072123;28;20029;-75
2022/10/25 03:06:51;;;;;;;7.72;3.30;;;15.90;99.90;;;;;;5078916;28;20035;-76
2022/10/25 03:09:17;;;;;;;8.10;3.15;;;16.00;99.90;;;;;;5081267;28;20028;-76
2022/10/25 03:11:42;;;;;;;7.40;3.30;;;16.00;99.90;;;;;;5075381;28;20031;-76
2022/10/25 03:14:08;;;;;;;8.90;3.20;;;16.00;99.90;;;;;;5071232;28;20039;-76
2022/10/25 03:16:33;;;;;;;5.40;2.60;;;16.00;99.90;;;;;;5080533;28;20023;-76
2022/10/25 03:18:59;;;;;;;5.95;3.10;;;16.00;99.90;;;;;;5054064;28;20376;-76
2022/10/25 03:21:25;;;;;;;8.88;4.30;;;16.00;99.90;;;;;;5082809;28;20024;-77
2022/10/25 03:23:51;;;;;;;8.05;3.25;;;16.00;99.90;;;;;;5071753;28;20024;-76
2022/10/25 03:26:17;;;;;;;7.18;2.97;;;16.00;99.90;;;;;;5076227;28;20097;-76
2022/10/25 03:28:42;;;;;;;4.32;2.80;;;16.00;99.90;;;;;;5086893;28;20024;-76
2022/10/25 03:31:13;;;;;;;8.52;2.85;;;16.00;99.90;;;;;;5086289;28;20435;-76
2022/10/25 03:33:39;;;;;;;9.07;3.15;;;16.00;99.90;;;;;;5078529;28;20028;-76
2022/10/25 03:36:05;;;;;;;9.43;3.67;;;16.00;99.90;;;;;;5080795;28;20032;-75
2022/10/25 03:38:31;;;;;;;5.53;2.90;;;16.00;99.90;;;;;;5071594;28;20035;-76
2022/10/25 03:40:57;;;;;;;5.03;2.38;;;16.00;99.90;;;;;;5085243;28;20032;-76
2022/10/25 03:43:23;;;;;;;6.97;2.85;;;16.00;99.90;;;;;;5071414;28;20024;-76
2022/10/25 03:45:48;;;;;;;5.22;2.70;;;16.00;99.90;;;;;;5082058;28;20545;-76
2022/10/25 03:48:14;;;;;;;5.55;2.97;;;16.00;99.90;;;;;;5070465;28;20024;-76
2022/10/25 03:50:40;;;;;;;5.40;2.53;;;16.10;99.90;;;;;;5089872;28;20107;-75
2022/10/25 03:53:06;;;;;;;6.13;2.70;;;16.10;99.90;;;;;;5066188;28;20161;-75
2022/10/25 03:55:33;;;;;;;8.75;2.78;;;16.10;99.90;;;;;;5070444;28;20027;-75
2022/10/25 03:57:59;;;;;;;5.45;2.35;;;16.10;99.90;;;;;;5073426;28;20120;-75
2022/10/25 04:00:25;;;;;;;4.75;2.13;;;16.10;99.90;;;;;;5071296;28;20151;-75
2022/10/25 04:02:54;;;;;;;4.40;2.42;;;16.00;99.90;;;;;;5076455;28;20028;-75
2022/10/25 04:05:20;;;;;;;5.72;2.60;;;16.00;99.90;;;;;;5083239;28;20032;-75
2022/10/25 04:07:47;;;;;;;3.15;2.20;;;16.00;99.90;;;;;;5078706;28;20039;-74
2022/10/25 04:10:13;;;;;;;7.40;2.53;;;16.00;99.90;;;;;;5072961;28;20032;-75
2022/10/25 04:12:38;;;;;;;6.25;2.58;;;16.00;99.90;;;;;;5075515;28;20025;-75
2022/10/25 04:15:04;;;;;;;11.98;2.67;;;16.00;99.90;;;;;;5076718;28;20040;-75
2022/10/25 04:17:31;;;;;;;5.82;2.50;;;16.00;99.90;;;;;;5069393;28;20021;-75
2022/10/25 04:19:56;;;;;;;5.32;2.00;;;16.00;99.90;;;;;;5071677;28;20028;-75
2022/10/25 04:22:22;;;;;;;4.85;2.72;;;16.00;99.90;;;;;;5070808;28;20028;-76
2022/10/25 04:24:47;;;;;;;6.90;2.45;;;16.10;99.90;;;;;;5071086;28;20017;-75
2022/10/25 04:27:13;;;;;;;5.50;2.42;;;16.10;99.90;;;;;;5076862;28;20024;-76
2022/10/25 04:29:38;;;;;;;5.90;3.20;;;16.00;99.90;;;;;;5083637;28;20029;-76
2022/10/25 04:32:04;;;;;;;5.07;2.45;;;16.00;99.90;;;;;;5088833;28;20070;-76
2022/10/25 04:34:30;;;;;;;6.70;3.25;;;16.00;99.90;;;;;;5070533;28;20032;-76
2022/10/25 04:36:56;;;;;;;6.72;2.80;;;16.00;99.90;;;;;;5074745;28;20032;-76
2022/10/25 04:39:22;;;;;;;4.90;2.60;;;16.10;99.90;;;;;;5072310;28;20197;-76
2022/10/25 04:41:47;;;;;;;5.40;2.25;;;16.00;99.90;;;;;;5085629;28;20094;-76
2022/10/25 04:44:13;;;;;;;6.10;2.40;;;16.00;99.90;;;;;;5078744;28;20024;-76
2022/10/25 04:46:39;;;;;;;4.53;2.72;;;16.00;99.90;;;;;;5081231;28;20051;-76
2022/10/25 04:49:04;;;;;;;8.27;2.70;;;16.00;99.90;;;;;;5076995;28;20032;-76
2022/10/25 04:51:30;;;;;;;3.78;2.35;;;16.00;99.90;;;;;;5073560;28;20119;-76
2022/10/25 04:53:55;;;;;;;5.72;2.28;;;16.00;99.90;;;;;;5091949;28;20024;-76
2022/10/25 04:56:22;;;;;;;4.13;2.20;;;16.00;99.90;;;;;;5089168;28;20453;-76
2022/10/25 04:58:47;;;;;;;5.57;2.65;;;16.00;99.90;;;;;;5093916;28;20056;-76
2022/10/25 05:01:17;;;;;;;6.97;2.30;;;16.00;99.90;;;;;;5076310;28;20518;-76
2022/10/25 05:03:42;;;;;;;5.13;2.22;;;16.00;99.90;;;;;;5092330;28;20020;-76
2022/10/25 05:06:10;;;;;;;4.53;2.80;;;15.90;99.90;;;;;;5087010;28;20032;-76
2022/10/25 05:08:42;;;;;;;5.07;2.15;;;16.00;99.90;;;;;;5088022;28;20021;-76
2022/10/25 05:11:09;;;;;;;5.57;2.25;;;15.90;99.90;;;;;;5077611;28;20043;-76
2022/10/25 05:13:37;;;;;;;4.53;1.92;;;16.00;99.90;;;;;;5072967;28;20395;-76
2022/10/25 05:16:03;;;;;;;5.00;2.58;;;15.90;99.90;;;;;;5073200;28;20216;-76
2022/10/25 05:18:33;;;;;;;5.85;2.17;;;15.90;99.90;;;;;;5081467;28;20029;-76
2022/10/25 05:21:03;;;;;;;6.22;2.33;;;15.90;99.90;;;;;;5073235;28;20055;-77
2022/10/25 05:23:28;;;;;;;6.03;2.58;;;15.80;99.90;;;;;;5090076;28;20074;-75
2022/10/25 05:26:09;;;;;;;5.82;2.50;;;15.80;99.90;;;;;;5088163;28;20040;-77
2022/10/25 05:28:36;;;;;;;5.80;2.47;;;15.80;99.90;;;;;;5087063;28;20031;-75
2022/10/25 05:31:16;;;;;;;4.95;2.17;;;15.80;99.90;;;;;;5073665;28;20074;-76
2022/10/25 05:33:43;;;;;;;4.80;2.78;;;15.70;99.90;;;;;;5086987;28;20051;-75
2022/10/25 05:36:10;;;;;;;6.05;2.85;;;15.70;99.90;;;;;;5080232;28;20039;-74
2022/10/25 05:38:36;;;;;;;5.90;2.38;;;15.60;99.90;;;;;;5085070;28;20384;-75
2022/10/25 05:41:01;;;;;;;4.53;2.40;;;15.60;99.90;;;;;;5082640;28;20028;-75
2022/10/25 05:43:27;;;;;;;7.03;2.38;;;15.60;99.90;;;;;;5087185;28;20028;-77
2022/10/25 05:46:02;;;;;;;6.07;2.42;;;15.60;99.90;;;;;;5087199;28;20043;-76
2022/10/25 05:48:28;;;;;;;5.00;2.30;;;15.60;99.90;;;;;;5077757;28;20028;-76
2022/10/25 05:51:07;;;;;;;5.43;2.47;;;15.60;99.90;;;;;;5068045;28;20509;-77
2022/10/25 05:53:33;;;;;;;4.30;2.00;;;15.50;99.90;;;;;;5080725;28;20025;-76
2022/10/25 05:55:59;;;;;;;4.88;2.75;;;15.60;99.90;;;;;;5089518;28;20362;-76
2022/10/25 05:58:24;;;;;;;5.30;2.15;;;15.60;99.90;;;;;;5085716;28;20025;-76
2022/10/25 06:00:50;;;;;;;7.25;2.30;;;15.60;99.90;;;;;;5082372;28;20028;-76
2022/10/25 06:03:15;;;;;;;4.10;2.20;;;15.60;99.90;;;;;;5086761;28;20471;-75
2022/10/25 06:05:41;;;;;;;5.55;2.22;;;15.60;99.90;;;;;;5081478;28;20039;-74
2022/10/25 06:08:07;;;;;;;4.53;2.33;;;15.60;99.90;;;;;;5081817;28;20032;-73
2022/10/25 06:10:32;;;;;;;3.17;1.60;;;15.70;99.90;;;;;;5082547;28;20493;-72
2022/10/25 06:12:58;;;;;;;6.43;2.00;;;15.70;99.90;;;;;;5082117;28;20035;-69
2022/10/25 06:15:25;;;;;;;3.85;2.00;;;15.60;99.90;;;;;;5072657;28;20103;-74
2022/10/25 06:17:50;;;;;;;4.93;1.90;;;15.70;99.90;;;;;;5082894;28;20065;-74
2022/10/25 06:20:16;;;;;;;4.80;2.17;;;15.70;99.90;;;;;;5081261;28;20036;-74
2022/10/25 06:22:43;;;;;;;4.63;2.33;;;15.80;99.90;;;;;;5076258;28;20024;-74
2022/10/25 06:25:10;;;;;;;3.80;1.80;;;15.80;99.90;;;;;;5071182;28;20487;-74
2022/10/25 06:27:35;;;;;;;4.45;1.70;;;15.80;99.90;;;;;;5072772;28;20031;-74
2022/10/25 06:30:01;;;;;;;4.20;2.03;;;15.90;99.90;;;;;;5076128;28;20068;-74
2022/10/25 06:32:27;;;;;;;7.60;2.67;;;15.90;99.90;;;;;;5085775;28;20059;-74
2022/10/25 06:34:52;;;;;;;5.32;2.20;;;15.90;99.90;;;;;;5082776;28;20040;-74
2022/10/25 06:37:18;;;;;;;7.07;1.70;;;15.90;99.90;;;;;;5073072;28;20078;-74
2022/10/25 06:39:44;;;;;;;4.43;1.92;;;16.00;99.90;;;;;;5072583;28;20033;-74
2022/10/25 06:42:09;;;;;;;6.35;2.03;;;16.00;99.90;;;;;;5069476;28;20028;-74
2022/10/25 06:44:36;;;;;;;4.47;1.95;;;16.00;99.90;;;;;;5074641;28;20103;-72
2022/10/25 06:47:01;;;;;;;5.90;2.10;;;16.00;99.90;;;;;;5069838;28;20079;-72
2022/10/25 06:49:27;;;;;;;3.63;1.88;;;16.10;99.90;;;;;;5081389;28;20020;-72
2022/10/25 06:51:53;;;;;;;9.70;2.40;;;16.10;99.90;;;;;;5073384;28;20027;-72
2022/10/25 06:54:19;;;;;;;6.63;2.25;;;16.10;99.90;;;;;;5070406;28;20023;-72
2022/10/25 06:56:44;;;;;;;6.30;2.50;;;16.20;99.90;;;;;;5073402;28;20479;-72
2022/10/25 06:59:10;;;;;;;9.65;3.65;;;16.20;99.90;;;;;;5076505;28;20036;-73
2022/10/25 07:01:36;;;;;;;5.55;2.88;;;16.30;99.90;;;;;;5069831;28;20450;-73
2022/10/25 07:04:02;;;;;;;5.55;2.92;;;16.30;99.90;;;;;;5066580;28;20208;-68
2022/10/25 07:06:34;;;;;;;4.63;2.17;;;16.30;99.90;;;;;;5069173;28;20048;-73
2022/10/25 07:09:00;;;;;;;7.40;2.70;;;16.30;99.90;;;;;;5079997;28;20038;-68
2022/10/25 07:11:28;;;;;;;3.92;2.20;;;16.40;99.90;;;;;;5071740;28;20028;-73
2022/10/25 07:13:54;;;;;;;4.97;2.00;;;16.40;99.90;;;;;;5071687;28;20029;-70
2022/10/25 07:16:20;;;;;;;5.45;1.92;;;16.50;99.90;;;;;;5071554;28;20016;-70
2022/10/25 07:18:47;;;;;;;5.63;2.85;;;16.50;99.90;;;;;;5068486;28;20016;-70
2022/10/25 07:21:20;;;;;;;4.93;1.77;;;16.50;99.90;;;;;;5066159;28;20051;-70
2022/10/25 07:23:48;;;;;;;3.63;1.70;;;16.50;99.90;;;;;;5075729;28;20396;-69
2022/10/25 07:26:21;;;;;;;4.53;2.47;;;16.60;99.90;;;;;;5071316;28;20044;-69
2022/10/25 07:28:48;;;;;;;6.60;2.20;;;16.60;99.90;;;;;;5078819;28;20115;-69
2022/10/25 07:31:23;;;;;;;6.85;2.50;;;16.60;99.90;;;;;;5071709;28;20035;-69
2022/10/25 07:33:50;;;;;;;4.05;1.92;;;16.60;99.90;;;;;;5079484;28;20423;-70
2022/10/25 07:36:16;;;;;;;5.75;2.05;;;16.60;99.90;;;;;;5088395;28;20036;-70
2022/10/25 07:38:42;;;;;;;7.05;2.35;;;16.70;99.90;;;;;;5081281;28;20105;-70
2022/10/25 07:41:08;;;;;;;8.32;2.80;;;16.70;99.90;;;;;;5065940;28;20032;-72
2022/10/25 07:43:34;;;;;;;4.88;2.25;;;16.70;99.90;;;;;;5080671;28;20035;-75
2022/10/25 07:46:00;;;;;;;5.18;2.22;;;16.80;99.90;;;;;;5082577;28;20029;-75
2022/10/25 07:48:26;;;;;;;5.75;2.35;;;16.80;99.90;;;;;;5073147;28;20021;-78
2022/10/25 07:50:52;;;;;;;6.85;2.08;;;16.80;99.90;;;;;;5080026;28;20277;-74
2022/10/25 07:53:18;;;;;;;5.47;2.38;;;16.80;99.90;;;;;;5071391;28;20031;-75
2022/10/25 07:55:51;;;;;;;2.60;1.77;;;16.90;99.90;;;;;;5077329;28;20491;-75
2022/10/25 07:58:18;;;;;;;6.75;3.08;;;16.90;99.90;;;;;;5082225;28;20080;-74
2022/10/25 08:00:43;;;;;;;4.47;2.20;;;17.00;99.90;;;;;;5071277;28;20044;-74
2022/10/25 08:03:09;;;;;;;4.65;2.40;;;17.10;99.90;;;;;;5070798;28;20025;-74
2022/10/25 08:05:35;;;;;;;5.20;2.45;;;17.10;99.90;;;;;;5071009;28;20025;-73
2022/10/25 08:08:00;;;;;;;2.90;1.63;;;17.10;99.90;;;;;;5072624;28;20028;-75
2022/10/25 08:10:26;;;;;;;6.38;2.05;;;17.10;99.90;;;;;;5075183;28;20017;-75
2022/10/25 08:12:55;;;;;;;8.57;1.90;;;17.10;99.90;;;;;;5072021;28;20040;-73
2022/10/25 08:15:21;;;;;;;4.43;1.98;;;17.20;99.90;;;;;;5089995;28;20395;-74
2022/10/25 08:17:46;;;;;;;5.38;2.47;;;17.20;99.90;;;;;;5073885;28;20031;-74
2022/10/25 08:20:13;;;;;;;4.40;2.40;;;17.20;99.90;;;;;;5075857;28;20115;-74
2022/10/25 08:22:39;;;;;;;5.60;1.90;;;17.20;99.90;;;;;;5086236;28;20039;-75
2022/10/25 08:25:05;;;;;;;5.00;2.00;;;17.20;99.90;;;;;;5087538;28;20032;-75
2022/10/25 08:27:31;;;;;;;6.22;1.70;;;17.20;99.90;;;;;;5078039;28;20020;-73
2022/10/25 08:29:57;;;;;;;6.80;2.42;;;17.20;99.90;;;;;;5088221;28;20120;-73
2022/10/25 08:32:22;;;;;;;5.50;2.25;;;17.20;99.90;;;;;;5074046;28;20108;-73
2022/10/25 08:34:48;;;;;;;3.25;1.85;;;17.20;99.90;;;;;;5090050;28;20041;-73
2022/10/25 08:37:14;;;;;;;8.32;2.13;;;17.20;99.90;;;;;;5073652;28;20577;-73
2022/10/25 08:39:39;;;;;;;4.68;2.10;;;17.20;99.90;;;;;;5090296;28;20115;-73
2022/10/25 08:42:05;;;;;;;4.32;2.00;;;17.20;99.90;;;;;;5074832;28;20107;-73
2022/10/25 08:45:17;;;;;;;5.10;1.90;;;17.20;99.90;;;;;;5086741;28;20028;-73
2022/10/25 08:47:46;;;;;;;4.63;1.88;;;17.20;99.90;;;;;;5017567;28;20034;-73
2022/10/25 08:50:33;;;;;;;5.55;2.05;;;17.20;99.90;;;;;;5012846;28;20030;-73
2022/10/25 08:53:04;;;;;;;7.15;2.30;;;17.20;99.90;;;;;;5072525;28;20040;-73
2022/10/25 08:55:39;;;;;;;6.43;3.03;;;17.20;99.90;;;;;;5075328;28;20021;-73
2022/10/25 08:58:22;;;;;;;5.30;2.22;;;17.30;99.90;;;;;;5084136;28;20032;-73
2022/10/25 09:00:49;;;;;;;3.72;2.10;;;17.20;99.90;;;;;;5086547;28;20047;-73
2022/10/25 09:03:24;;;;;;;4.93;1.98;;;17.20;99.90;;;;;;5075272;28;20029;-74
2022/10/25 09:05:49;;;;;;;;;;;17.30;99.90;;;;;;5074266;28;20129;-73
2022/10/25 09:08:33;;;;;;;4.38;2.00;;;17.40;99.90;;;;;;5084434;28;19908;-73
2022/10/25 09:11:18;;;;;;;5.78;2.05;;;17.30;99.90;;;;;;5078807;28;20074;-74
2022/10/25 09:13:59;;;;;;;7.07;2.78;;;17.30;99.90;;;;;;5085022;28;20039;-74
2022/10/25 09:16:35;;;;;;;5.63;2.20;;;17.40;99.90;;;;;;5073177;28;20144;-75
2022/10/25 09:19:07;;;;;;;5.25;2.63;;;17.40;99.90;;;;;;5083753;28;20055;-74
2022/10/25 09:22:02;;;;;;;7.35;2.30;;;17.40;99.90;;;;;;5085852;28;20037;-75
2022/10/25 09:25:05;;;;;;;6.85;2.00;;;17.50;99.90;;;;;;5083549;28;20039;-74
2022/10/25 09:27:37;;;;;;;3.90;2.10;;;17.60;99.90;;;;;;5088487;28;20036;-74
2022/10/25 09:30:09;;;;;;;5.97;2.80;;;17.60;99.90;;;;;;5068742;28;20036;-74
2022/10/25 09:33:08;;;;;;;8.88;2.65;;;17.60;99.90;;;;;;5071219;28;20078;-73
2022/10/25 09:35:51;;;;;;;6.55;1.70;;;17.60;99.90;;;;;;5068277;28;20129;-73
2022/10/25 09:38:51;;;;;;;5.15;2.10;;;17.70;99.90;;;;;;5074560;28;20033;-75
2022/10/25 09:41:32;;;;;;;5.28;2.33;;;17.70;99.90;;;;;;5064180;28;20052;-75
2022/10/25 09:44:05;;;;;;;5.82;2.70;;;17.70;99.90;;;;;;5082086;28;20062;-75
2022/10/25 09:46:55;;;;;;;5.05;2.20;;;17.80;99.90;;;;;;5072927;28;20127;-75
2022/10/25 09:49:30;;;;;;;9.38;2.60;;;17.80;99.90;;;;;;5074021;28;20031;-75
2022/10/25 09:52:39;;;;;;;5.72;2.58;;;17.70;99.90;;;;;;5071833;28;20060;-75
2022/10/25 09:55:30;;;;;;;5.90;2.47;;;17.70;99.90;;;;;;5022106;28;20033;-74
2022/10/25 09:57:55;;;;;;;6.53;2.28;;;17.70;99.90;;;;;;5068816;28;20121;-75
2022/10/25 10:00:21;;;;;;;8.35;2.53;;;17.60;99.90;;;;;;5074045;28;20207;-75
2022/10/25 10:02:47;;;;;;;5.47;2.63;;;17.70;99.90;;;;;;5088378;28;20036;-75
2022/10/25 10:05:15;;;;;;;4.85;2.00;;;17.70;99.90;;;;;;5073742;28;20462;-74
2022/10/25 10:07:42;;;;;;;7.07;2.13;;;17.70;99.90;;;;;;5073594;28;20047;-73
2022/10/25 10:10:12;;;;;;;5.82;2.15;;;17.80;99.90;;;;;;5073261;28;20035;-74
2022/10/25 10:13:04;;;;;;;7.63;2.38;;;17.80;99.90;;;;;;5073851;28;20056;-74
2022/10/25 10:15:37;;;;;;;5.20;2.10;;;17.90;99.90;;;;;;5073324;28;20040;-74
2022/10/25 10:18:43;;;;;;;6.93;2.15;;;17.90;99.90;;;;;;5073340;28;20064;-75
2022/10/25 10:21:12;;;;;;;4.82;2.20;;;17.90;99.90;;;;;;5070400;28;20082;-76
2022/10/25 10:23:41;;;;;;;7.85;3.80;;;17.90;99.90;;;;;;5069187;28;20040;-76
2022/10/25 10:26:21;;;;;;;5.00;2.65;;;17.90;99.90;;;;;;5071827;28;20377;-74
2022/10/25 10:28:49;;;;;;;6.20;2.38;;;17.90;99.90;;;;;;5062263;28;20027;-74
2022/10/25 10:31:16;;;;;;;6.35;2.25;;;18.00;99.90;;;;;;5072370;28;20038;-75
2022/10/25 10:33:48;;;;;;;5.57;2.20;;;18.00;99.90;;;;;;5068419;28;20047;-74
2022/10/25 10:36:28;;;;;;;4.35;1.80;;;18.00;99.90;;;;;;5068493;28;20090;-74
2022/10/25 10:39:11;;;;;;;5.35;1.90;;;18.00;99.90;;;;;;5063982;28;20044;-73
2022/10/25 10:41:50;;;;;;;4.65;1.98;;;18.00;99.90;;;;;;5070673;28;20056;-72
2022/10/25 10:44:16;;;;;;;7.55;2.20;;;18.00;99.90;;;;;;5072778;28;20029;-73
2022/10/25 10:46:45;;;;;;;7.93;2.40;;;18.00;99.90;;;;;;5072502;28;20036;-73
2022/10/25 10:49:13;;;;;;;9.63;2.55;;;18.00;99.90;;;;;;5070629;28;20023;-69
2022/10/25 10:51:42;;;;;;;6.82;2.92;;;18.00;99.90;;;;;;5068394;28;20043;-69
2022/10/25 10:54:29;;;;;;;7.05;2.40;;;18.00;99.90;;;;;;5071866;28;20021;-70
2022/10/25 10:56:57;;;;;;;5.90;2.38;;;18.00;99.90;;;;;;5071756;28;20059;-71
2022/10/25 10:59:33;;;;;;;5.55;2.42;;;18.00;99.90;;;;;;5071272;28;20024;-68
2022/10/25 11:02:25;;;;;;;6.00;2.42;;;18.10;99.90;;;;;;5072043;28;20025;-68
2022/10/25 11:04:54;;;;;;;5.57;2.20;;;18.10;99.90;;;;;;5071714;28;20054;-68
2022/10/25 11:07:25;;;;;;;4.15;2.05;;;18.10;99.90;;;;;;5070773;28;20090;-68
2022/10/25 11:09:51;;;;;;;5.43;2.50;;;18.20;99.90;;;;;;5068901;28;20023;-68
2022/10/25 11:12:17;;;;;;;5.47;2.13;;;18.20;99.80;;;;;;5069141;28;20032;-68
2022/10/25 11:14:43;;;;;;;5.32;2.20;;;18.30;99.70;;;;;;5069081;28;20012;-68
2022/10/25 11:17:30;;;;;;;5.32;2.33;;;18.40;99.60;;;;;;5067252;28;20055;-68
2022/10/25 11:20:26;;;;;;;5.95;1.98;;;18.50;99.50;;;;;;5067343;28;20035;-68
2022/10/25 11:23:05;;;;;;;4.45;2.33;;;18.50;99.40;;;;;;5061454;28;20431;-68
2022/10/25 11:25:52;;;;;;;5.82;2.20;;;18.60;99.20;;;;;;5069043;28;20039;-68
2022/10/25 11:28:36;;;;;;;5.57;1.90;;;18.70;99.10;;;;;;5084225;28;20036;-68
2022/10/25 11:31:30;;;;;;;6.33;2.30;;;18.70;98.90;;;;;;5076821;28;20059;-68
2022/10/25 11:34:12;;;;;;;5.43;2.50;;;18.70;98.80;;;;;;5071607;28;20047;-67
2022/10/25 11:36:44;;;;;;;9.00;2.72;;;18.70;99.00;;;;;;5072563;28;20036;-67
2022/10/25 11:39:12;;;;;;;4.32;2.10;;;18.70;98.70;;;;;;5088430;28;20024;-68
2022/10/25 11:41:50;;;;;;;7.50;2.38;;;18.80;98.40;;;;;;5071179;28;20111;-68
2022/10/25 11:44:49;;;;;;;4.65;2.05;;;18.70;98.20;;;;;;5076069;28;20039;-67
2022/10/25 11:47:17;;;;;;;6.82;2.17;;;18.80;98.20;;;;;;5054292;28;20044;-68
2022/10/25 11:49:56;;;;;;;4.32;1.90;;;18.80;97.90;;;;;;5063106;28;20016;-67
2022/10/25 11:52:48;;;;;;;4.35;2.42;;;18.90;97.90;;;;;;5062461;28;20028;-66
2022/10/25 11:55:25;;;;;;;6.28;2.47;;;18.90;97.80;;;;;;5050884;28;20021;-67
2022/10/25 11:58:15;;;;;;;6.40;2.28;;;19.00;97.70;;;;;;5063451;28;20026;-68
2022/10/25 12:01:13;;;;;;;8.40;2.67;;;19.00;97.60;;;;;;5059417;28;20032;-69
2022/10/25 12:03:54;;;;;;;5.13;2.30;;;19.00;97.50;;;;;;5074740;28;20032;-69
2022/10/25 12:06:25;;;;;;;3.55;1.73;;;19.00;97.40;;;;;;5074763;28;20051;-69
2022/10/25 12:09:09;;;;;;;9.13;2.20;;;19.10;97.40;;;;;;5094609;28;20083;-69
2022/10/25 12:11:49;;;;;;;5.60;2.30;;;19.10;97.30;;;;;;5084041;28;20035;-68
2022/10/25 12:14:22;;;;;;;4.88;2.03;;;19.20;97.20;;;;;;5091993;28;20110;-68
2022/10/25 12:16:48;;;;;;;4.88;1.92;;;19.20;97.10;;;;;;5071077;28;20028;-69
2022/10/25 12:19:21;;;;;;;7.00;2.53;;;19.30;97.10;;;;;;5093438;28;20197;-69
2022/10/25 12:22:04;;;;;;;5.47;2.35;;;19.20;96.90;;;;;;5069803;28;20036;-68
2022/10/25 12:24:44;;;;;;;4.90;2.30;;;19.20;97.00;;;;;;5068660;28;20031;-68
2022/10/25 12:27:12;;;;;;;4.70;2.00;;;19.20;96.70;;;;;;5072394;28;20048;-68
2022/10/25 12:29:42;;;;;;;5.32;2.63;;;19.30;97.00;;;;;;5073460;28;20029;-67
2022/10/25 12:32:16;;;;;;;7.10;2.28;;;19.30;96.60;;;;;;5063359;28;20047;-68
2022/10/25 12:34:49;;;;;;;7.50;2.53;;;19.40;96.50;;;;;;5066159;28;20465;-68
2022/10/25 12:37:38;;;;;;;5.15;2.22;;;19.40;96.50;;;;;;5071343;28;20119;-67
2022/10/25 12:40:13;;;;;;;5.95;2.15;;;19.40;96.40;;;;;;5069522;28;20029;-68
2022/10/25 12:42:48;;;;;;;5.50;1.80;;;19.40;96.30;;;;;;5067851;28;20040;-68
2022/10/25 12:45:32;;;;;;;4.90;2.38;;;19.50;96.40;;;;;;5069763;28;20037;-68
2022/10/25 12:48:15;;;;;;;3.58;2.40;;;19.50;96.40;;;;;;5065148;28;20029;-68
2022/10/25 12:50:44;;;;;;;3.53;2.00;;;19.50;96.30;;;;;;5068817;28;20066;-67
2022/10/25 12:53:32;;;;;;;6.15;2.05;;;19.50;96.20;;;;;;5071582;28;20424;-68
2022/10/25 12:56:35;;;;;;;4.97;2.58;;;19.40;96.00;;;;;;5079576;28;20059;-68
2022/10/25 12:59:41;;;;;;;5.60;2.22;;;19.40;96.00;;;;;;5071547;28;20063;-68
2022/10/25 13:02:37;;;;;;;6.22;2.50;;;19.20;96.10;;;;;;5066604;28;20045;-67
2022/10/25 13:05:09;;;;;;;7.13;3.38;;;19.10;96.10;;;;;;5056238;28;20056;-68
2022/10/25 13:07:36;;;;;;;4.85;2.03;;;19.10;96.20;;;;;;5075843;28;20494;-68
2022/10/25 13:10:20;;;;;;;5.53;2.10;;;18.90;96.20;;;;;;5073471;28;20024;-70
2022/10/25 13:13:05;;;;;;;7.38;2.45;;;18.90;96.30;;;;;;5066491;28;20127;-68